Latest Coastal Weather Observations for Gannett Cay

IDQ60701

Issued at 3:51 pm EST Thursday 8 December 2016 (issued every 10 minutes, with the page automatically refreshed every 10 minutes)

About coastal observations | Map of coastal stations | Coastal observations for QLD | Marine services | Other Formats
Station Details ID: 200831 Name: GANNET CAY Lat: -21.98 Lon: 152.47 Height: 2.3 m
Data from the previous 72 hours. | See also: Recent months for locations in Queensland
Date/Time
EST
Temp
°C
Wind Pressure Rain since
9am
mm
Weather Cloud Vis
km
Sea
Height
m
Swell
Dir  Spd
kts
Gust
kts
hPa Trend Height
m
Period
s
Dir
08/03:30pm 26.1 NE 6 10 1009.8 - - - - - - - - -
08/03:29pm 26.1 NE 5 - 1009.9 - - - - - - - - -
08/03:00pm 26.2 NE 1 3 1009.8 - - - - - - - - -
08/02:30pm 26.4 ENE 8 9 1010.1 - - - - - - - - -
08/02:29pm 26.3 ENE 8 - 1010.2 - - - - - - - - -
08/02:00pm 26.3 NE 8 9 1010.3 - - - - - - - - -
08/01:30pm 26.4 NE 7 8 1010.5 - - - - - - - - -
08/01:29pm 26.5 NE 7 - 1010.6 - - - - - - - - -
08/01:00pm 26.3 ENE 7 8 1010.8 - - - - - - - - -
08/12:30pm 26.3 NE 7 9 1011.0 - - - - - - - - -
08/12:29pm 26.3 NE 7 - 1011.1 - - - - - - - - -
08/12:00pm 26.2 NE 8 9 1011.2 - - - - - - - - -
08/11:30am 26.4 NE 8 10 1011.6 - - - - - - - - -
08/11:29am 26.5 NE 8 - 1011.7 - - - - - - - - -
08/11:00am 26.2 NE 9 10 1011.7 - - - - - - - - -
08/10:30am 26.3 NE 9 11 1011.9 - - - - - - - - -
08/10:29am 26.2 NE 9 - 1012.0 - - - - - - - - -
08/10:00am 26.2 NE 9 9 1012.1 - - - - - - - - -
08/09:30am 26.3 NE 10 11 1012.3 - - - - - - - - -
08/09:29am 26.2 NE 10 - 1012.4 - - - - - - - - -
08/09:00am 26.3 NE 11 12 1012.4 - - - - - - - - -
08/08:30am 26.3 NE 9 12 1012.4 - - - - - - - - -
08/08:29am 26.2 NE 9 - 1012.5 - - - - - - - - -
08/08:00am 26.1 NE 1 8 1012.3 - - - - - - - - -
08/07:30am 25.9 ENE 1 3 1012.4 - - - - - - - - -
08/07:29am 26.0 ENE 1 - 1012.5 - - - - - - - - -
08/07:00am 25.8 ENE 4 9 1012.5 - - - - - - - - -
08/06:30am 25.6 ENE 8 9 1012.5 - - - - - - - - -
08/06:29am 25.7 ENE 8 - 1012.5 - - - - - - - - -
08/06:00am 25.5 ENE 9 10 1012.1 - - - - - - - - -
08/05:30am 25.6 ENE 9 10 1012.0 - - - - - - - - -
08/05:29am 25.5 ENE 9 - 1012.1 - - - - - - - - -
08/05:00am 25.5 ENE 1 3 1011.9 - - - - - - - - -
08/04:30am 25.5 ENE 8 9 1011.6 - - - - - - - - -
08/04:29am 25.5 ENE 8 - 1011.7 - - - - - - - - -
08/04:00am 25.5 ENE 8 9 1011.5 - - - - - - - - -
08/03:30am 25.5 NE 7 9 1011.3 - - - - - - - - -
08/03:29am 25.5 NE 7 - 1011.4 - - - - - - - - -
08/03:00am 25.6 NE 7 8 1011.3 - - - - - - - - -
08/02:30am 25.5 NE 7 8 1011.5 - - - - - - - - -
08/02:29am 25.5 NE 7 - 1011.6 - - - - - - - - -
08/02:00am 25.7 NE 8 9 1011.5 - - - - - - - - -
08/01:30am 25.7 NE 8 9 1011.7 - - - - - - - - -
08/01:29am 25.7 NE 8 - 1011.8 - - - - - - - - -
08/01:00am 25.5 NNE 9 11 1011.9 - - - - - - - - -
08/12:30am 25.6 N 11 13 1012.0 - - - - - - - - -
08/12:29am 25.5 N 11 - 1012.1 - - - - - - - - -
08/12:00am 25.6 N 12 14 1012.2 - - - - - - - - -
 
Date/Time
EST
Temp
°C
Wind Pressure Rain since
9am
mm
Weather Cloud Vis
km
Sea
Height
m
Swell
Dir  Spd
kts
Gust
kts
hPa Trend Height
m
Period
s
Dir
07/11:30pm 25.7 N 12 14 1012.6 - - - - - - - - -
07/11:29pm 25.8 N 12 - 1012.8 - - - - - - - - -
07/11:00pm 25.7 NNE 13 15 1012.7 - - - - - - - - -
07/10:30pm 25.7 N 12 14 1012.8 - - - - - - - - -
07/10:29pm 26.0 N 11 - 1012.9 - - - - - - - - -
07/10:00pm 25.8 NNE 1 3 1012.8 - - - - - - - - -
07/09:30pm 26.0 NNE 1 3 1013.0 - - - - - - - - -
07/09:29pm 25.9 NNE 1 - 1013.1 - - - - - - - - -
07/09:00pm 25.9 NNE 1 3 1012.8 - - - - - - - - -
07/08:30pm 25.9 NNE 1 3 1012.6 - - - - - - - - -
07/08:29pm 25.9 NNE 1 - 1012.7 - - - - - - - - -
07/08:00pm 26.0 NE 1 3 1012.4 - - - - - - - - -
07/07:30pm 25.8 NE 1 3 1012.2 - - - - - - - - -
07/07:29pm 26.0 NE 1 - 1012.3 - - - - - - - - -
07/07:00pm 25.8 NE 7 14 1012.0 - - - - - - - - -
07/06:30pm 26.0 NE 11 13 1012.1 - - - - - - - - -
07/06:29pm 25.8 NE 11 - 1012.1 - - - - - - - - -
07/06:00pm 26.1 NE 10 12 1011.9 - - - - - - - - -
07/05:30pm 26.2 NE 9 11 1011.9 - - - - - - - - -
07/05:29pm 26.2 NE 9 - 1012.0 - - - - - - - - -
07/05:00pm 26.4 NE 9 11 1012.0 - - - - - - - - -
07/04:30pm 26.2 NE 9 11 1011.8 - - - - - - - - -
07/04:29pm 26.2 NE 9 - 1012.0 - - - - - - - - -
07/04:00pm 26.2 ENE 8 9 1012.0 - - - - - - - - -
07/03:30pm 26.0 ENE 6 8 1012.1 - - - - - - - - -
07/03:29pm 26.1 NE 6 - 1012.2 - - - - - - - - -
07/03:00pm 26.1 ENE 7 8 1012.2 - - - - - - - - -
07/02:30pm 26.3 ENE 7 8 1012.5 - - - - - - - - -
07/02:29pm 26.1 ENE 7 - 1012.6 - - - - - - - - -
07/02:00pm 26.4 ENE 6 7 1012.7 - - - - - - - - -
07/01:30pm 26.7 E 6 7 1012.8 - - - - - - - - -
07/01:29pm 27.0 ENE 6 - 1012.9 - - - - - - - - -
07/01:00pm 26.2 ENE 5 7 1012.9 - - - - - - - - -
07/12:30pm 27.5 E 4 5 1013.1 - - - - - - - - -
07/12:29pm 27.3 ENE 4 - 1013.2 - - - - - - - - -
07/12:00pm 27.3 E 2 5 1013.4 - - - - - - - - -
07/11:30am 27.6 E 3 5 1013.7 - - - - - - - - -
07/11:29am 27.5 E 3 - 1013.8 - - - - - - - - -
07/11:00am 27.2 E 2 5 1013.9 - - - - - - - - -
07/10:30am 27.2 ESE 4 5 1014.2 - - - - - - - - -
07/10:29am 27.2 ESE 4 - 1014.3 - - - - - - - - -
07/10:00am 27.0 ESE 3 5 1014.3 - - - - - - - - -
07/09:30am 26.3 ESE 3 5 1014.5 - - - - - - - - -
07/09:29am 26.5 ESE 3 - 1014.6 - - - - - - - - -
07/09:00am 27.2 ENE 1 3 1014.5 - - - - - - - - -
07/08:30am 25.9 ENE 6 7 1013.9 - - - - - - - - -
07/08:29am 25.8 ENE 6 - 1014.0 - - - - - - - - -
07/08:00am 26.0 NE 6 7 1014.0 - - - - - - - - -
07/07:30am 25.7 NE 7 8 1013.9 - - - - - - - - -
07/07:29am 25.6 NE 7 - 1014.0 - - - - - - - - -
07/07:00am 25.7 ENE 7 9 1013.6 - - - - - - - - -
07/06:30am 25.7 NE 9 10 1013.3 - - - - - - - - -
07/06:29am 25.7 NE 9 - 1013.4 - - - - - - - - -
07/06:00am 25.3 NE 11 13 1012.8 - - - - - - - - -
07/05:30am 25.1 NE 10 13 1012.4 - - - - - - - - -
07/05:29am 25.2 NE 9 - 1012.5 - - - - - - - - -
07/05:00am 25.0 NE 11 13 1011.9 - - - - - - - - -
07/04:30am 25.0 NE 13 14 1011.3 - - - - - - - - -
07/04:29am 25.0 NE 13 - 1011.4 - - - - - - - - -
07/04:00am 25.3 NE 1 3 1011.3 - - - - - - - - -
07/03:30am 25.2 NE 1 3 1011.2 - - - - - - - - -
07/03:29am 25.2 NE 1 - 1011.3 - - - - - - - - -
07/03:00am 25.4 ENE 1 3 1011.1 - - - - - - - - -
07/02:30am 25.4 ENE 1 3 1011.5 - - - - - - - - -
07/02:29am 25.3 ENE 1 - 1011.6 - - - - - - - - -
07/02:00am 25.2 CALM 0 3 1011.7 - - - - - - - - -
07/01:30am 25.3 NE 1 3 1011.8 - - - - - - - - -
07/01:29am 25.3 NE 1 - 1011.9 - - - - - - - - -
07/01:00am 25.2 ENE 1 3 1012.0 - - - - - - - - -
07/12:30am 25.4 ENE 1 3 1012.2 - - - - - - - - -
07/12:29am 25.4 ENE 1 - 1012.3 - - - - - - - - -
07/12:00am 25.2 CALM 0 3 1012.4 - - - - - - - - -
 
Date/Time
EST
Temp
°C
Wind Pressure Rain since
9am
mm
Weather Cloud Vis
km
Sea
Height
m
Swell
Dir  Spd
kts
Gust
kts
hPa Trend Height
m
Period
s
Dir
06/11:30pm 25.4 ENE 1 3 1012.5 - - - - - - - - -
06/11:29pm 25.3 ENE 1 - 1012.6 - - - - - - - - -
06/11:00pm 25.6 ENE 1 3 1012.4 - - - - - - - - -
06/10:30pm 25.4 ENE 1 17 1012.6 - - - - - - - - -
06/10:29pm 25.4 ENE 1 - 1012.6 - - - - - - - - -
06/10:00pm 25.6 NE 15 18 1012.9 - - - - - - - - -
06/09:30pm 25.7 NE 16 18 1013.0 - - - - - - - - -
06/09:29pm 25.6 NE 16 - 1013.1 - - - - - - - - -
06/09:00pm 25.6 NE 15 17 1013.0 - - - - - - - - -
06/08:30pm 25.6 ENE 14 17 1013.1 - - - - - - - - -
06/08:29pm 25.7 ENE 14 - 1013.1 - - - - - - - - -
06/08:00pm 25.5 ENE 15 18 1013.0 - - - - - - - - -
06/07:30pm 25.6 ENE 15 17 1012.9 - - - - - - - - -
06/07:29pm 25.5 ENE 14 - 1013.1 - - - - - - - - -
06/07:00pm 25.6 ENE 15 18 1013.1 - - - - - - - - -
06/06:30pm 25.6 ENE 15 17 1013.0 - - - - - - - - -
06/06:29pm 25.7 ENE 15 - 1013.1 - - - - - - - - -
06/06:00pm 25.8 E 14 16 1012.9 - - - - - - - - -
06/05:30pm 25.9 E 13 15 1012.7 - - - - - - - - -
06/05:29pm 25.7 E 13 - 1012.8 - - - - - - - - -
06/05:00pm 25.9 E 13 16 1012.6 - - - - - - - - -
06/04:30pm 25.8 E 14 16 1012.6 - - - - - - - - -
06/04:29pm 25.8 E 14 - 1012.7 - - - - - - - - -
06/04:00pm 26.0 E 13 16 1013.0 - - - - - - - - -
06/03:30pm 26.0 E 13 16 1013.2 - - - - - - - - -
06/03:29pm 26.2 E 13 - 1013.3 - - - - - - - - -
06/03:00pm 26.1 E 13 15 1013.3 - - - - - - - - -
06/02:30pm 26.0 E 13 15 1013.7 - - - - - - - - -
06/02:29pm 26.0 E 12 - 1013.8 - - - - - - - - -
06/02:00pm 26.0 E 13 16 1014.2 - - - - - - - - -
06/01:30pm 26.3 E 14 17 1014.6 - - - - - - - - -
06/01:29pm 26.3 E 14 - 1014.7 - - - - - - - - -
06/01:00pm 26.2 E 13 17 1014.8 - - - - - - - - -
06/12:30pm 26.0 E 13 15 1015.2 - - - - - - - - -
06/12:29pm 25.8 E 13 - 1015.3 - - - - - - - - -
06/12:00pm 25.9 E 13 16 1015.8 - - - - - - - - -
06/11:30am 25.9 E 12 15 1016.1 - - - - - - - - -
06/11:29am 26.1 E 12 - 1016.3 - - - - - - - - -
06/11:00am 25.8 E 12 15 1016.3 - - - - - - - - -
06/10:30am 25.7 E 12 13 1016.3 - - - - - - - - -
06/10:29am 25.8 E 12 - 1016.4 - - - - - - - - -
06/10:00am 25.6 ENE 13 16 1016.0 - - - - - - - - -
06/09:30am 25.5 ENE 13 15 1015.8 - - - - - - - - -
06/09:29am 25.7 ENE 14 - 1015.9 - - - - - - - - -
06/09:00am 25.7 ENE 12 14 1015.5 - - - - - - - - -
06/08:30am 25.6 ENE 12 14 1015.7 - - - - - - - - -
06/08:29am 25.6 ENE 12 - 1015.8 - - - - - - - - -
06/08:00am 25.3 ENE 12 14 1015.5 - - - - - - - - -
06/07:30am 25.4 ENE 11 13 1015.5 - - - - - - - - -
06/07:29am 25.2 ENE 11 - 1015.6 - - - - - - - - -
06/07:00am 25.3 ENE 12 15 1015.1 - - - - - - - - -
06/06:30am 25.2 ENE 14 17 1014.9 - - - - - - - - -
06/06:29am 25.2 ENE 14 - 1014.9 - - - - - - - - -
06/06:00am 25.0 ENE 13 16 1014.4 - - - - - - - - -
06/05:30am 25.1 ENE 15 17 1014.4 - - - - - - - - -
06/05:29am 25.2 ENE 15 - 1014.4 - - - - - - - - -
06/05:00am 24.9 ENE 14 17 1014.0 - - - - - - - - -
06/04:30am 25.0 ENE 14 17 1013.7 - - - - - - - - -
06/04:29am 25.1 ENE 14 - 1013.8 - - - - - - - - -
06/04:00am 25.2 ENE 16 19 1013.1 - - - - - - - - -
06/03:30am 25.1 NE 16 18 1013.1 - - - - - - - - -
06/03:29am 25.2 NE 16 - 1013.2 - - - - - - - - -
06/03:00am 25.4 NE 17 20 1012.9 - - - - - - - - -
06/02:30am 25.5 ENE 17 20 1012.9 - - - - - - - - -
06/02:29am 25.6 ENE 17 - 1013.0 - - - - - - - - -
06/02:00am 25.3 ENE 16 20 1013.0 - - - - - - - - -
06/01:30am 25.3 ENE 16 19 1013.0 - - - - - - - - -
06/01:29am 25.5 ENE 17 - 1013.1 - - - - - - - - -
06/01:00am 25.3 ENE 19 21 1013.1 - - - - - - - - -
06/12:30am 25.3 ENE 17 21 1013.7 - - - - - - - - -
06/12:29am 25.6 ENE 17 - 1013.8 - - - - - - - - -
06/12:00am 25.3 ENE 16 19 1014.1 - - - - - - - - -
 
Date/Time
EST
Temp
°C
Wind Pressure Rain since
9am
mm
Weather Cloud Vis
km
Sea
Height
m
Swell
Dir  Spd
kts
Gust
kts
hPa Trend Height
m
Period
s
Dir
05/11:39pm 25.5 ENE 18 19 1014.3 - - - - - - - - -
05/11:30pm 25.4 E 1 3 1014.5 - - - - - - - - -
05/11:29pm 25.4 ENE 1 - 1014.6 - - - - - - - - -
05/11:00pm 25.3 ENE 1 3 1014.7 - - - - - - - - -
05/10:30pm 25.4 ENE 1 3 1015.1 - - - - - - - - -
05/10:29pm 25.6 ENE 1 - 1015.2 - - - - - - - - -
05/10:00pm 25.4 ENE 1 3 1015.0 - - - - - - - - -
05/09:30pm 25.3 ENE 1 3 1015.0 - - - - - - - - -
05/09:29pm 25.3 ENE 1 - 1015.1 - - - - - - - - -
05/09:00pm 25.4 ENE 1 3 1014.8 - - - - - - - - -
05/08:30pm 25.5 E 1 2 1014.8 - - - - - - - - -
05/08:29pm 25.3 E 1 - 1014.9 - - - - - - - - -
05/08:00pm 25.6 E 1 2 1014.5 - - - - - - - - -
05/07:30pm 25.7 E 1 2 1014.3 - - - - - - - - -
05/07:29pm 25.6 E 1 - 1014.5 - - - - - - - - -
05/07:00pm 25.6 E 1 3 1014.4 - - - - - - - - -
05/06:30pm 25.5 ENE 11 13 1014.0 - - - - - - - - -
05/06:29pm 25.6 ENE 11 - 1014.1 - - - - - - - - -
05/06:00pm 25.7 ENE 11 13 1013.8 - - - - - - - - -
05/05:30pm 25.8 ENE 11 14 1013.4 - - - - - - - - -
05/05:29pm 25.7 ENE 11 - 1013.5 - - - - - - - - -
05/05:00pm 25.9 E 9 11 1013.6 - - - - - - - - -
05/04:30pm 25.8 E 10 11 1013.3 - - - - - - - - -
05/04:29pm 25.9 E 10 - 1013.4 - - - - - - - - -
05/04:00pm 25.8 E 10 11 1013.1 - - - - - - - - -

Other Formats:

Comma delimited format used in spreadsheet applications
http://www.bom.gov.au/fwo/IDQ60701/IDQ60701.94379.axf

JavaScript Object Notation format (JSON) in row-major order
http://www.bom.gov.au/fwo/IDQ60701/IDQ60701.94379.json